Time;durP1;ratioP1;P1;durP2;ratioP2;P2;SDS_P1;SDS_P2;PMS_P1;PMS_P2;Temp;Humidity;BMP_temperature;BMP_pressure;BME280_temperature;BME280_humidity;BME280_pressure;Samples;Min_cycle;Max_cycle;Signal;HPM_P1;HPM_P2
2023/12/12 00:00:29;;;;;;;13.75;2.00;;;10.30;99.90;;;;;;5094248;28;20035;-84
2023/12/12 00:02:55;;;;;;;11.77;1.77;;;10.30;99.90;;;;;;5098418;28;20068;-83
2023/12/12 00:05:21;;;;;;;7.85;1.45;;;10.30;99.90;;;;;;5098711;28;20020;-84
2023/12/12 00:07:47;;;;;;;13.93;2.13;;;10.30;99.90;;;;;;5116895;28;20019;-84
2023/12/12 00:10:13;;;;;;;9.20;1.80;;;10.30;99.90;;;;;;5097310;28;20450;-84
2023/12/12 00:12:38;;;;;;;12.70;1.80;;;10.30;99.90;;;;;;5098335;28;20035;-83
2023/12/12 00:15:04;;;;;;;7.68;1.73;;;10.30;99.90;;;;;;5098234;28;20456;-84
2023/12/12 00:17:30;;;;;;;9.90;1.42;;;10.30;99.90;;;;;;5098602;28;20032;-83
2023/12/12 00:19:55;;;;;;;11.00;1.42;;;10.30;99.90;;;;;;5098655;28;20114;-84
2023/12/12 00:22:21;;;;;;;11.05;1.60;;;10.30;99.90;;;;;;5098213;28;20015;-84
2023/12/12 00:24:47;;;;;;;8.15;1.77;;;10.30;99.90;;;;;;5116762;28;20367;-84
2023/12/12 00:27:12;;;;;;;6.32;1.52;;;10.30;99.90;;;;;;5098035;28;20020;-84
2023/12/12 00:29:38;;;;;;;6.88;1.48;;;10.30;99.90;;;;;;5098290;28;20026;-83
2023/12/12 00:32:04;;;;;;;8.48;1.50;;;10.20;99.90;;;;;;5097595;28;20039;-84
2023/12/12 00:34:30;;;;;;;13.77;2.00;;;10.20;99.90;;;;;;5116511;28;20106;-84
2023/12/12 00:36:56;;;;;;;10.20;1.95;;;10.20;99.90;;;;;;5116102;28;20059;-84
2023/12/12 00:39:21;;;;;;;9.60;1.92;;;10.20;99.90;;;;;;5097007;28;20475;-84
2023/12/12 00:41:48;;;;;;;6.32;1.58;;;10.20;99.90;;;;;;5098877;28;20023;-83
2023/12/12 00:44:14;;;;;;;7.47;1.85;;;10.30;99.90;;;;;;5097794;28;20059;-84
2023/12/12 00:46:40;;;;;;;12.00;1.63;;;10.30;99.90;;;;;;5116211;28;20020;-84
2023/12/12 00:49:05;;;;;;;12.70;1.90;;;10.20;99.90;;;;;;5115820;28;20024;-84
2023/12/12 00:51:32;;;;;;;10.45;1.70;;;10.20;99.90;;;;;;5116306;28;20032;-84
2023/12/12 00:53:58;;;;;;;9.02;1.40;;;10.20;99.90;;;;;;5097948;28;20051;-83
2023/12/12 00:56:23;;;;;;;9.35;1.65;;;10.20;99.90;;;;;;5097708;28;20153;-84
2023/12/12 00:58:49;;;;;;;4.85;1.38;;;10.20;99.90;;;;;;5116136;28;20024;-84
2023/12/12 01:01:15;;;;;;;13.38;1.90;;;10.10;99.90;;;;;;5097525;28;20056;-84
2023/12/12 01:03:40;;;;;;;12.45;2.40;;;10.10;99.90;;;;;;5098105;28;20365;-84
2023/12/12 01:06:07;;;;;;;12.30;2.38;;;10.10;99.90;;;;;;5115223;28;20020;-84
2023/12/12 01:08:33;;;;;;;13.52;1.67;;;10.10;99.90;;;;;;5115924;28;20163;-84
2023/12/12 01:10:59;;;;;;;11.43;1.88;;;10.10;99.90;;;;;;5116074;28;20039;-84
2023/12/12 01:13:24;;;;;;;11.30;1.60;;;10.10;99.90;;;;;;5097189;28;20035;-84
2023/12/12 01:15:50;;;;;;;6.22;1.67;;;10.10;99.90;;;;;;5097320;28;20027;-83
2023/12/12 01:18:15;;;;;;;10.25;2.90;;;10.20;99.90;;;;;;5097341;28;20084;-84
2023/12/12 01:20:41;;;;;;;9.10;1.63;;;10.20;99.90;;;;;;5097533;28;20483;-84
2023/12/12 01:23:07;;;;;;;8.77;1.80;;;10.20;99.90;;;;;;5115188;28;20032;-84
2023/12/12 01:25:32;;;;;;;8.80;1.75;;;10.20;99.90;;;;;;5097821;28;20190;-84
2023/12/12 01:27:59;;;;;;;6.57;1.73;;;10.10;99.90;;;;;;5097564;28;20115;-84
2023/12/12 01:30:24;;;;;;;14.15;2.13;;;10.10;99.90;;;;;;5097256;28;20066;-84
2023/12/12 01:32:50;;;;;;;9.57;1.80;;;10.10;99.90;;;;;;5097486;28;20024;-83
2023/12/12 01:35:16;;;;;;;7.03;1.27;;;10.00;99.90;;;;;;5096860;28;20024;-83
2023/12/12 01:37:41;;;;;;;7.05;1.65;;;10.00;99.90;;;;;;5097311;28;20574;-85
2023/12/12 01:40:08;;;;;;;12.00;1.65;;;10.00;99.90;;;;;;5114566;28;20052;-84
2023/12/12 01:42:33;;;;;;;10.32;1.80;;;10.00;99.90;;;;;;5115268;28;20024;-83
2023/12/12 01:44:59;;;;;;;7.75;1.45;;;10.00;99.90;;;;;;5097364;28;20118;-83
2023/12/12 01:47:26;;;;;;;11.57;1.50;;;10.00;99.90;;;;;;5096637;28;20027;-82
2023/12/12 01:49:52;;;;;;;7.53;1.85;;;10.00;99.90;;;;;;5096607;28;20032;-82
2023/12/12 01:52:19;;;;;;;7.28;1.30;;;10.00;99.90;;;;;;5114536;28;20019;-83
2023/12/12 01:54:47;;;;;;;6.18;1.80;;;9.90;99.90;;;;;;5115038;28;20027;-82
2023/12/12 01:57:16;;;;;;;11.43;1.50;;;9.90;99.90;;;;;;5114609;28;20045;-83
2023/12/12 01:59:43;;;;;;;9.13;1.75;;;9.80;99.90;;;;;;5114906;28;20034;-83
2023/12/12 02:02:10;;;;;;;5.05;1.40;;;9.70;99.90;;;;;;5096441;28;20031;-83
2023/12/12 02:04:36;;;;;;;10.13;1.88;;;9.70;99.90;;;;;;5114739;28;20019;-82
2023/12/12 02:07:04;;;;;;;5.95;1.40;;;9.70;99.90;;;;;;5096919;28;20027;-83
2023/12/12 02:09:30;;;;;;;8.25;1.98;;;9.60;99.90;;;;;;5096723;28;20031;-83
2023/12/12 02:11:56;;;;;;;7.63;1.70;;;9.60;99.90;;;;;;5114731;28;20024;-83
2023/12/12 02:14:22;;;;;;;12.05;2.03;;;9.50;99.90;;;;;;5096152;28;20028;-82
2023/12/12 02:16:48;;;;;;;8.70;1.52;;;9.50;99.90;;;;;;5096852;28;20026;-82
2023/12/12 02:19:15;;;;;;;7.32;1.73;;;9.50;99.90;;;;;;5114222;28;20020;-83
2023/12/12 02:21:41;;;;;;;7.35;1.70;;;9.50;99.90;;;;;;5096373;28;20164;-84
2023/12/12 02:24:06;;;;;;;9.55;1.70;;;9.50;99.90;;;;;;5095945;28;20114;-84
2023/12/12 02:26:32;;;;;;;6.78;1.65;;;9.50;99.90;;;;;;5096569;28;20031;-83
2023/12/12 02:28:58;;;;;;;6.78;1.80;;;9.50;99.90;;;;;;5096704;28;20383;-84
2023/12/12 02:31:24;;;;;;;8.82;1.90;;;9.40;99.90;;;;;;5096203;28;20033;-83
2023/12/12 02:33:49;;;;;;;11.43;1.90;;;9.40;99.90;;;;;;5096074;28;20118;-84
2023/12/12 02:36:15;;;;;;;10.35;1.88;;;9.40;99.90;;;;;;5113984;28;20027;-83
2023/12/12 02:38:41;;;;;;;7.65;2.30;;;9.40;99.90;;;;;;5096458;28;20456;-84
2023/12/12 02:41:08;;;;;;;8.00;2.00;;;9.40;99.90;;;;;;5113982;28;20062;-84
2023/12/12 02:43:35;;;;;;;8.30;1.80;;;9.40;99.90;;;;;;5096618;28;20032;-84
2023/12/12 02:46:00;;;;;;;8.43;1.73;;;9.40;99.90;;;;;;5114256;28;20516;-84
2023/12/12 02:48:26;;;;;;;8.85;1.85;;;9.40;99.90;;;;;;5095760;28;20134;-84
2023/12/12 02:50:52;;;;;;;5.03;1.55;;;9.40;99.90;;;;;;5096491;28;20050;-84
2023/12/12 02:53:17;;;;;;;8.88;1.73;;;9.40;99.90;;;;;;5095983;28;20461;-84
2023/12/12 02:55:43;;;;;;;10.88;1.90;;;9.40;99.90;;;;;;5096421;28;20020;-84
2023/12/12 02:58:09;;;;;;;8.90;1.85;;;9.30;99.90;;;;;;5095819;28;20040;-84
2023/12/12 03:00:34;;;;;;;10.85;2.15;;;9.40;99.90;;;;;;5096453;28;20039;-84
2023/12/12 03:03:00;;;;;;;6.53;1.48;;;9.40;99.90;;;;;;5099286;28;20027;-84
2023/12/12 03:05:25;;;;;;;8.10;1.85;;;9.40;99.90;;;;;;5099732;28;20477;-84
2023/12/12 03:07:51;;;;;;;8.00;1.75;;;9.40;99.90;;;;;;5118231;28;20055;-84
2023/12/12 03:10:17;;;;;;;7.72;1.63;;;9.30;99.90;;;;;;5099856;28;20032;-84
2023/12/12 03:12:43;;;;;;;5.70;2.03;;;9.30;99.90;;;;;;5100087;28;20581;-84
2023/12/12 03:15:09;;;;;;;6.55;1.88;;;9.30;99.90;;;;;;5099870;28;20024;-85
2023/12/12 03:17:34;;;;;;;11.57;2.45;;;9.30;99.90;;;;;;5099989;28;20024;-84
2023/12/12 03:20:00;;;;;;;8.85;1.63;;;9.30;99.90;;;;;;5100002;28;20024;-84
2023/12/12 03:22:26;;;;;;;7.10;1.67;;;9.30;99.90;;;;;;5117685;28;20586;-84
2023/12/12 03:24:51;;;;;;;3.58;1.20;;;9.30;99.90;;;;;;5100072;28;20384;-84
2023/12/12 03:27:17;;;;;;;8.73;2.00;;;9.30;99.90;;;;;;5117502;28;20480;-84
2023/12/12 03:29:42;;;;;;;8.88;2.10;;;9.20;99.90;;;;;;5100110;28;20027;-84
2023/12/12 03:32:08;;;;;;;9.18;1.67;;;9.20;99.90;;;;;;5100166;28;20073;-84
2023/12/12 03:34:33;;;;;;;11.68;1.95;;;9.20;99.90;;;;;;5117692;28;20031;-84
2023/12/12 03:36:59;;;;;;;5.70;1.60;;;9.10;99.90;;;;;;5100173;28;20411;-83
2023/12/12 03:39:25;;;;;;;7.80;2.03;;;9.10;99.90;;;;;;5098988;28;20034;-83
2023/12/12 03:41:50;;;;;;;8.80;1.83;;;9.10;99.90;;;;;;5099424;28;20469;-84
2023/12/12 03:44:16;;;;;;;10.13;1.85;;;9.10;99.90;;;;;;5099083;28;20380;-83
2023/12/12 03:46:41;;;;;;;6.47;1.63;;;9.00;99.90;;;;;;5099327;28;20452;-83
2023/12/12 03:49:08;;;;;;;6.05;1.90;;;9.00;99.90;;;;;;5099487;28;20024;-83
2023/12/12 03:51:33;;;;;;;7.35;1.60;;;9.00;99.90;;;;;;5098982;28;20110;-83
2023/12/12 03:53:59;;;;;;;9.73;1.65;;;9.00;99.90;;;;;;5099468;28;20062;-83
2023/12/12 03:56:24;;;;;;;7.47;2.03;;;9.00;99.90;;;;;;5098875;28;20027;-84
2023/12/12 03:58:50;;;;;;;6.55;1.63;;;8.90;99.90;;;;;;5099010;28;20028;-84
2023/12/12 04:01:16;;;;;;;7.22;1.60;;;8.90;99.90;;;;;;5099027;28;20039;-84
2023/12/12 04:03:41;;;;;;;5.82;1.67;;;8.80;99.90;;;;;;5098927;28;20106;-85
2023/12/12 04:06:07;;;;;;;7.35;1.67;;;8.80;99.90;;;;;;5099086;28;20044;-84
2023/12/12 04:08:33;;;;;;;8.00;1.83;;;8.80;99.90;;;;;;5098260;28;20460;-84
2023/12/12 04:10:58;;;;;;;6.00;1.65;;;8.80;99.90;;;;;;5098829;28;20035;-84
2023/12/12 04:13:24;;;;;;;5.43;1.27;;;8.80;99.90;;;;;;5098009;28;20063;-84
2023/12/12 04:15:50;;;;;;;7.28;1.48;;;8.70;99.90;;;;;;5099038;28;20361;-83
2023/12/12 04:18:15;;;;;;;7.03;1.48;;;8.70;99.90;;;;;;5098350;28;20122;-84
2023/12/12 04:20:41;;;;;;;6.32;1.60;;;8.60;99.90;;;;;;5116982;28;20110;-83
2023/12/12 04:23:07;;;;;;;6.40;1.70;;;8.60;99.90;;;;;;5116745;28;20020;-83
2023/12/12 04:25:33;;;;;;;4.47;1.70;;;8.50;99.90;;;;;;5098161;28;20117;-83
2023/12/12 04:27:58;;;;;;;6.05;1.65;;;8.50;99.90;;;;;;5098341;28;20031;-83
2023/12/12 04:30:24;;;;;;;5.93;1.65;;;8.50;99.90;;;;;;5115969;28;20035;-83
2023/12/12 04:32:50;;;;;;;12.30;1.42;;;8.50;99.90;;;;;;5098412;28;20514;-83
2023/12/12 04:35:16;;;;;;;6.75;1.65;;;8.40;99.90;;;;;;5098078;28;20023;-84
2023/12/12 04:37:41;;;;;;;6.03;1.80;;;8.50;99.90;;;;;;5098512;28;20388;-84
2023/12/12 04:40:07;;;;;;;8.25;1.92;;;8.40;99.90;;;;;;5098025;28;20051;-83
2023/12/12 04:42:33;;;;;;;6.65;1.65;;;8.50;99.90;;;;;;5115909;28;20125;-84
2023/12/12 04:44:58;;;;;;;9.65;1.73;;;8.50;99.90;;;;;;5098566;28;20114;-84
2023/12/12 04:47:24;;;;;;;5.22;1.40;;;8.60;99.90;;;;;;5097879;28;20023;-84
2023/12/12 04:49:51;;;;;;;6.75;1.60;;;8.60;99.90;;;;;;5098271;28;20118;-84
2023/12/12 04:52:16;;;;;;;9.75;1.70;;;8.60;99.90;;;;;;5097775;28;20461;-84
2023/12/12 04:54:42;;;;;;;7.43;1.70;;;8.70;99.90;;;;;;5097764;28;20077;-83
2023/12/12 04:57:07;;;;;;;4.18;1.42;;;8.70;99.90;;;;;;5098182;28;20026;-83
2023/12/12 04:59:33;;;;;;;6.25;2.00;;;8.70;99.90;;;;;;5097480;28;20122;-83
2023/12/12 05:01:58;;;;;;;7.80;1.70;;;8.80;99.90;;;;;;5097903;28;20020;-84
2023/12/12 05:04:24;;;;;;;9.55;1.83;;;8.80;99.90;;;;;;5115594;28;20027;-84
2023/12/12 05:06:50;;;;;;;7.18;1.52;;;8.80;99.90;;;;;;5116163;28;20028;-84
2023/12/12 05:09:17;;;;;;;9.30;1.83;;;8.80;99.90;;;;;;5097473;28;20027;-85
2023/12/12 05:11:42;;;;;;;6.85;2.05;;;8.80;99.90;;;;;;5097721;28;20039;-83
2023/12/12 05:14:10;;;;;;;3.88;1.75;;;8.80;99.90;;;;;;5097690;28;20027;-84
2023/12/12 05:16:36;;;;;;;3.75;1.60;;;8.80;99.90;;;;;;5097093;28;20110;-84
2023/12/12 05:19:02;;;;;;;5.40;1.73;;;8.80;99.90;;;;;;5097384;28;20054;-84
2023/12/12 05:21:29;;;;;;;6.15;1.92;;;8.90;99.90;;;;;;5115113;28;20032;-85
2023/12/12 05:23:55;;;;;;;3.80;1.60;;;8.90;99.90;;;;;;5097047;28;20031;-84
2023/12/12 05:26:20;;;;;;;5.28;1.80;;;8.90;99.90;;;;;;5096732;28;20020;-85
2023/12/12 05:28:46;;;;;;;3.67;1.50;;;8.90;99.90;;;;;;5115638;28;20079;-84
2023/12/12 05:31:12;;;;;;;6.95;1.67;;;8.90;99.90;;;;;;5097726;28;20042;-84
2023/12/12 05:33:38;;;;;;;6.72;2.17;;;9.00;99.90;;;;;;5096874;28;20566;-85
2023/12/12 05:36:04;;;;;;;9.43;2.00;;;9.00;99.90;;;;;;5115440;28;20051;-84
2023/12/12 05:38:30;;;;;;;5.88;1.75;;;9.00;99.90;;;;;;5096636;28;20083;-85
2023/12/12 05:40:56;;;;;;;7.00;1.65;;;9.00;99.90;;;;;;5114746;28;20122;-84
2023/12/12 05:43:22;;;;;;;4.95;1.52;;;9.00;99.90;;;;;;5096628;28;20051;-85
2023/12/12 05:45:48;;;;;;;4.80;1.60;;;9.00;99.90;;;;;;5096898;28;20028;-85
2023/12/12 05:48:13;;;;;;;4.18;1.60;;;9.00;99.90;;;;;;5096980;28;20550;-83
2023/12/12 05:50:39;;;;;;;2.40;1.30;;;9.00;99.90;;;;;;5114589;28;20217;-84
2023/12/12 05:53:05;;;;;;;5.97;1.52;;;9.00;99.90;;;;;;5097302;28;20024;-83
2023/12/12 05:55:30;;;;;;;4.32;1.75;;;9.00;99.90;;;;;;5096371;28;20023;-84
2023/12/12 05:57:56;;;;;;;5.55;1.52;;;9.00;99.90;;;;;;5114855;28;20464;-84
2023/12/12 06:00:22;;;;;;;6.38;1.67;;;9.10;99.90;;;;;;5096522;28;20036;-84
2023/12/12 06:02:48;;;;;;;5.95;2.00;;;9.10;99.90;;;;;;5114779;28;20032;-84
2023/12/12 06:05:13;;;;;;;6.75;1.95;;;9.10;99.90;;;;;;5097086;28;20027;-83
2023/12/12 06:07:39;;;;;;;7.03;1.77;;;9.00;99.90;;;;;;5114438;28;20229;-84
2023/12/12 06:10:06;;;;;;;4.47;1.90;;;9.10;99.90;;;;;;5096371;28;20113;-83
2023/12/12 06:12:32;;;;;;;5.93;1.45;;;9.10;99.90;;;;;;5095989;28;20081;-84
2023/12/12 06:14:57;;;;;;;6.88;1.50;;;9.10;99.90;;;;;;5115107;28;20027;-84
2023/12/12 06:17:23;;;;;;;6.95;1.60;;;9.10;99.90;;;;;;5096159;28;20022;-84
2023/12/12 06:19:49;;;;;;;8.48;1.40;;;9.20;99.90;;;;;;5114532;28;20495;-84
2023/12/12 06:22:14;;;;;;;5.80;2.00;;;9.20;99.90;;;;;;5096385;28;20032;-83
2023/12/12 06:24:40;;;;;;;5.30;1.35;;;9.20;99.90;;;;;;5096077;28;20065;-82
2023/12/12 06:27:06;;;;;;;7.88;1.73;;;9.30;99.90;;;;;;5096204;28;20555;-84
2023/12/12 06:29:32;;;;;;;8.73;1.58;;;9.30;99.90;;;;;;5095939;28;20114;-84
2023/12/12 06:31:57;;;;;;;7.00;1.50;;;9.30;99.90;;;;;;5096585;28;20072;-83
2023/12/12 06:34:23;;;;;;;8.45;1.35;;;9.30;99.90;;;;;;5095964;28;20122;-89
2023/12/12 06:36:49;;;;;;;7.50;1.40;;;9.30;99.90;;;;;;5096048;28;20024;-84
2023/12/12 06:39:14;;;;;;;6.55;1.58;;;9.30;99.90;;;;;;5114181;28;20516;-83
2023/12/12 06:41:40;;;;;;;7.65;1.55;;;9.30;99.90;;;;;;5095693;28;20047;-83
2023/12/12 06:44:06;;;;;;;8.45;1.75;;;9.30;99.90;;;;;;5096576;28;20065;-84
2023/12/12 06:46:32;;;;;;;4.28;1.50;;;9.30;99.90;;;;;;5095826;28;20024;-84
2023/12/12 06:48:57;;;;;;;8.63;1.80;;;9.20;99.90;;;;;;5096415;28;20035;-84
2023/12/12 06:51:23;;;;;;;3.38;1.17;;;9.30;99.90;;;;;;5113911;28;20031;-85
2023/12/12 06:53:49;;;;;;;6.18;1.60;;;9.30;99.90;;;;;;5096304;28;20024;-84
2023/12/12 06:56:15;;;;;;;5.43;1.13;;;9.30;99.90;;;;;;5096264;28;20027;-84
2023/12/12 06:58:40;;;;;;;7.07;1.30;;;9.30;99.90;;;;;;5095985;28;20148;-85
2023/12/12 07:01:08;;;;;;;3.05;1.05;;;9.30;99.90;;;;;;5096476;28;20437;-84
2023/12/12 07:03:34;;;;;;;6.97;1.23;;;9.40;99.90;;;;;;5095738;28;20020;-84
2023/12/12 07:06:02;;;;;;;8.13;1.58;;;9.40;99.90;;;;;;5114239;28;20032;-84
2023/12/12 07:08:28;;;;;;;6.53;1.27;;;9.40;99.90;;;;;;5114135;28;20023;-84
2023/12/12 07:10:53;;;;;;;4.60;1.48;;;9.40;99.90;;;;;;5096041;28;20031;-84
2023/12/12 07:13:19;;;;;;;4.97;1.73;;;9.40;99.90;;;;;;5096208;28;20108;-84
2023/12/12 07:15:45;;;;;;;7.47;1.83;;;9.40;99.90;;;;;;5095670;28;20019;-84
2023/12/12 07:18:12;;;;;;;9.02;1.70;;;9.40;99.90;;;;;;5114298;28;20030;-85
2023/12/12 07:20:38;;;;;;;4.63;1.50;;;9.40;99.90;;;;;;5095765;28;20063;-85
2023/12/12 07:23:04;;;;;;;5.75;1.63;;;9.40;99.90;;;;;;5114051;28;20027;-84
2023/12/12 07:25:30;;;;;;;9.45;1.60;;;9.40;99.90;;;;;;5095888;28;20063;-85
2023/12/12 07:27:56;;;;;;;6.43;1.50;;;9.40;99.90;;;;;;5096371;28;20076;-84
2023/12/12 07:30:21;;;;;;;7.03;1.52;;;9.50;99.90;;;;;;5096000;28;20031;-84
2023/12/12 07:32:47;;;;;;;4.03;1.50;;;9.50;99.90;;;;;;5113705;28;20024;-84
2023/12/12 07:35:12;;;;;;;4.85;1.27;;;9.50;99.90;;;;;;5095847;28;20118;-84
2023/12/12 07:37:38;;;;;;;6.78;1.42;;;9.50;99.90;;;;;;5095656;28;20361;-85
2023/12/12 07:40:04;;;;;;;5.88;1.30;;;9.50;99.90;;;;;;5092215;28;20076;-84
2023/12/12 07:42:30;;;;;;;4.05;1.30;;;9.50;99.90;;;;;;5092310;28;20024;-85
2023/12/12 07:44:57;;;;;;;6.72;1.77;;;9.50;99.90;;;;;;5092771;28;20058;-85
2023/12/12 07:47:26;;;;;;;3.00;1.05;;;9.50;99.90;;;;;;5093087;28;20358;-84
2023/12/12 07:49:52;;;;;;;9.23;1.45;;;9.60;99.90;;;;;;5097310;28;20024;-84
2023/12/12 07:52:18;;;;;;;6.93;1.20;;;9.60;99.90;;;;;;5096074;28;20037;-84
2023/12/12 07:54:43;;;;;;;6.38;1.50;;;9.60;99.90;;;;;;5095880;28;20098;-84
2023/12/12 07:57:09;;;;;;;5.22;2.42;;;9.70;99.90;;;;;;5097057;28;20053;-83
2023/12/12 07:59:35;;;;;;;6.88;1.33;;;9.60;99.90;;;;;;5095682;28;20024;-84
2023/12/12 08:02:00;;;;;;;4.85;1.55;;;9.70;99.90;;;;;;5096857;28;20527;-84
2023/12/12 08:04:26;;;;;;;4.35;1.33;;;9.60;99.90;;;;;;5095426;28;20085;-85
2023/12/12 08:06:52;;;;;;;5.65;1.63;;;9.60;99.90;;;;;;5096465;28;20119;-85
2023/12/12 08:09:17;;;;;;;7.53;1.48;;;9.60;99.90;;;;;;5095696;28;20452;-84
2023/12/12 08:11:43;;;;;;;3.78;1.50;;;9.70;99.90;;;;;;5095493;28;20118;-84
2023/12/12 08:14:09;;;;;;;5.53;1.58;;;9.60;99.90;;;;;;5096513;28;20031;-84
2023/12/12 08:16:34;;;;;;;6.38;1.48;;;9.60;99.90;;;;;;5095442;28;20020;-85
2023/12/12 08:19:00;;;;;;;6.70;1.50;;;9.60;99.90;;;;;;5095705;28;20077;-84
2023/12/12 08:21:26;;;;;;;4.32;1.20;;;9.70;99.90;;;;;;5095281;28;20117;-87
2023/12/12 08:23:54;;;;;;;6.22;1.92;;;9.70;99.90;;;;;;5095521;28;20028;-84
2023/12/12 08:26:22;;;;;;;4.45;1.75;;;9.70;99.90;;;;;;5095491;28;20038;-81
2023/12/12 08:28:48;;;;;;;4.88;1.58;;;9.80;99.90;;;;;;5095244;28;20028;-83
2023/12/12 08:31:13;;;;;;;4.53;1.40;;;9.70;99.90;;;;;;5095640;28;20483;-84
2023/12/12 08:33:39;;;;;;;3.13;1.30;;;9.80;99.90;;;;;;5094860;28;20025;-84
2023/12/12 08:36:06;;;;;;;11.35;2.15;;;9.80;99.90;;;;;;5095473;28;20551;-84
2023/12/12 08:38:31;;;;;;;2.92;1.40;;;9.80;99.90;;;;;;5095977;28;20461;-85
2023/12/12 08:40:57;;;;;;;3.95;1.65;;;9.90;99.90;;;;;;5110987;28;20048;-83
2023/12/12 08:43:23;;;;;;;8.43;1.20;;;9.90;99.90;;;;;;5098631;28;20020;-83
2023/12/12 08:45:50;;;;;;;6.40;1.27;;;9.90;99.90;;;;;;5116137;28;20020;-83
2023/12/12 08:48:16;;;;;;;4.60;1.40;;;9.90;99.90;;;;;;5098566;28;20094;-83
2023/12/12 08:50:41;;;;;;;4.38;1.58;;;9.90;99.90;;;;;;5098140;28;20456;-83
2023/12/12 08:53:07;;;;;;;7.25;1.48;;;9.90;99.90;;;;;;5098453;28;20453;-83
2023/12/12 08:55:33;;;;;;;2.20;1.25;;;9.90;99.90;;;;;;5097861;28;20516;-83
2023/12/12 08:57:59;;;;;;;4.95;1.67;;;10.00;99.90;;;;;;5098458;28;20115;-82
2023/12/12 09:00:24;;;;;;;3.90;2.03;;;9.90;99.90;;;;;;5098243;28;20032;-83
2023/12/12 09:02:50;;;;;;;4.78;1.35;;;10.00;99.90;;;;;;5115790;28;20075;-83
2023/12/12 09:05:16;;;;;;;5.28;1.65;;;10.00;99.90;;;;;;5098026;28;20030;-83
2023/12/12 09:07:41;;;;;;;2.83;1.20;;;10.00;99.90;;;;;;5097901;28;20023;-83
2023/12/12 09:10:07;;;;;;;6.93;1.80;;;10.00;99.90;;;;;;5116389;28;20035;-83
2023/12/12 09:12:33;;;;;;;6.13;1.40;;;10.00;99.90;;;;;;5097858;28;20027;-84
2023/12/12 09:14:59;;;;;;;7.22;1.60;;;10.00;99.90;;;;;;5116241;28;20047;-83
2023/12/12 09:17:25;;;;;;;9.60;1.85;;;10.00;99.90;;;;;;5097962;28;20028;-83
2023/12/12 09:19:50;;;;;;;3.67;1.63;;;10.00;99.90;;;;;;5115344;28;20048;-84
2023/12/12 09:22:16;;;;;;;3.97;1.48;;;10.10;99.90;;;;;;5097789;28;20030;-82
2023/12/12 09:24:42;;;;;;;2.92;1.33;;;10.10;99.90;;;;;;5097473;28;20030;-84
2023/12/12 09:27:07;;;;;;;6.22;1.45;;;10.10;99.90;;;;;;5097940;28;20035;-84
2023/12/12 09:29:33;;;;;;;5.00;1.45;;;10.10;99.90;;;;;;5097056;28;20456;-84
2023/12/12 09:31:58;;;;;;;5.38;1.50;;;10.10;99.90;;;;;;5097750;28;20084;-83
2023/12/12 09:34:24;;;;;;;3.53;1.70;;;10.10;99.90;;;;;;5115788;28;20055;-84
2023/12/12 09:36:50;;;;;;;7.78;1.50;;;10.10;99.90;;;;;;5097413;28;20140;-83
2023/12/12 09:39:19;;;;;;;4.22;1.45;;;10.20;99.90;;;;;;5097438;28;20024;-86
2023/12/12 09:41:47;;;;;;;3.97;1.42;;;10.20;99.90;;;;;;5097022;28;20031;-84
2023/12/12 09:44:17;;;;;;;3.67;1.40;;;10.20;99.90;;;;;;5097531;28;20028;-84
2023/12/12 09:46:43;;;;;;;7.10;1.52;;;10.20;99.90;;;;;;5114930;28;20031;-85
2023/12/12 09:49:11;;;;;;;3.33;1.17;;;10.20;99.90;;;;;;5097421;28;20023;-85
2023/12/12 09:51:50;;;;;;;4.70;1.23;;;10.20;99.90;;;;;;5114770;28;20061;-85
2023/12/12 09:54:17;;;;;;;3.65;1.30;;;10.10;99.90;;;;;;5097461;28;20068;-84
2023/12/12 09:56:46;;;;;;;2.90;1.38;;;10.20;99.90;;;;;;5097094;28;20023;-84
2023/12/12 09:59:12;;;;;;;3.13;1.38;;;10.20;99.90;;;;;;5097392;28;20034;-84
2023/12/12 10:01:39;;;;;;;7.72;1.40;;;10.20;99.90;;;;;;5114243;28;20035;-84
2023/12/12 10:04:09;;;;;;;6.57;1.60;;;10.20;99.90;;;;;;5097087;28;20023;-83
2023/12/12 10:06:41;;;;;;;5.00;1.50;;;10.20;99.90;;;;;;5096524;28;20479;-84
2023/12/12 10:09:07;;;;;;;5.47;2.17;;;10.20;99.90;;;;;;5096553;28;20045;-84
2023/12/12 10:11:33;;;;;;;4.55;1.63;;;10.20;99.90;;;;;;5096054;28;20035;-90
2023/12/12 10:14:00;;;;;;;4.07;1.70;;;10.20;99.90;;;;;;5096851;28;20380;-83
2023/12/12 10:16:27;;;;;;;4.88;1.80;;;10.20;99.90;;;;;;5096885;28;20028;-83
2023/12/12 10:18:52;;;;;;;3.95;1.38;;;10.20;99.90;;;;;;5096640;28;20364;-83
2023/12/12 10:21:22;;;;;;;4.72;1.40;;;10.20;99.90;;;;;;5096932;28;20071;-84
2023/12/12 10:23:50;;;;;;;4.78;1.52;;;10.10;99.90;;;;;;5096361;28;20361;-83
2023/12/12 10:26:27;;;;;;;5.93;1.67;;;10.10;99.90;;;;;;5096507;28;20024;-82
2023/12/12 10:28:56;;;;;;;7.30;1.88;;;10.20;99.90;;;;;;5096211;28;20076;-83
2023/12/12 10:31:23;;;;;;;5.35;1.40;;;10.20;99.90;;;;;;5096632;28;20476;-82
2023/12/12 10:33:53;;;;;;;4.88;1.50;;;10.20;99.90;;;;;;5096002;28;20024;-83
2023/12/12 10:36:18;;;;;;;5.35;1.40;;;10.20;99.90;;;;;;5096643;28;20487;-83
2023/12/12 10:38:44;;;;;;;5.45;1.60;;;10.30;99.90;;;;;;5114049;28;20110;-83
2023/12/12 10:41:19;;;;;;;6.00;1.65;;;10.30;99.90;;;;;;5096210;28;20059;-83
2023/12/12 10:43:46;;;;;;;4.82;1.20;;;10.30;99.90;;;;;;5095894;28;20046;-82
2023/12/12 10:46:13;;;;;;;8.07;1.38;;;10.30;99.90;;;;;;5114353;28;20031;-83
2023/12/12 10:48:47;;;;;;;4.57;1.58;;;10.20;99.90;;;;;;5095754;28;20047;-83
2023/12/12 10:51:14;;;;;;;3.33;1.40;;;10.20;99.90;;;;;;5096539;28;20024;-82
2023/12/12 10:53:42;;;;;;;4.85;1.45;;;10.20;99.90;;;;;;5096302;28;20063;-83
2023/12/12 10:56:09;;;;;;;5.18;1.50;;;10.20;99.90;;;;;;5114254;28;20080;-82
2023/12/12 10:58:37;;;;;;;23.60;11.68;;;10.20;99.90;;;;;;5096101;28;20469;-90
2023/12/12 11:01:03;;;;;;;8.40;3.80;;;10.20;99.90;;;;;;5096277;28;20028;-82
2023/12/12 11:03:30;;;;;;;4.88;2.22;;;10.20;99.90;;;;;;5114248;28;20032;-84
2023/12/12 11:05:57;;;;;;;6.05;1.85;;;10.20;99.90;;;;;;5095990;28;20027;-83
2023/12/12 11:08:24;;;;;;;3.85;2.00;;;10.30;99.90;;;;;;5096136;28;20028;-83
2023/12/12 11:10:52;;;;;;;5.68;1.80;;;10.30;99.90;;;;;;5095760;28;20061;-83
2023/12/12 11:13:20;;;;;;;3.88;2.00;;;10.30;99.90;;;;;;5113820;28;20465;-82
2023/12/12 11:15:46;;;;;;;4.80;1.80;;;10.40;99.90;;;;;;5095643;28;20027;-83
2023/12/12 11:18:14;;;;;;;6.50;1.98;;;10.40;99.90;;;;;;5114170;28;20503;-83
2023/12/12 11:20:41;;;;;;;4.25;1.90;;;10.40;99.90;;;;;;5095501;28;20174;-83
2023/12/12 11:23:07;;;;;;;3.92;1.58;;;10.30;99.90;;;;;;5097633;28;20031;-83
2023/12/12 11:25:37;;;;;;;7.38;1.98;;;10.40;99.90;;;;;;5099894;28;20019;-82
2023/12/12 11:28:03;;;;;;;8.25;2.15;;;10.40;99.90;;;;;;5100021;28;20031;-83
2023/12/12 11:30:33;;;;;;;4.70;1.90;;;10.40;99.90;;;;;;5099794;28;20038;-83
2023/12/12 11:33:00;;;;;;;8.27;2.05;;;10.40;99.90;;;;;;5099330;28;20027;-83
2023/12/12 11:35:29;;;;;;;5.32;1.92;;;10.40;99.90;;;;;;5099771;28;20114;-83
2023/12/12 11:37:56;;;;;;;7.85;2.58;;;10.40;99.90;;;;;;5099311;28;20380;-83
2023/12/12 11:40:24;;;;;;;6.40;2.08;;;10.40;99.90;;;;;;5117188;28;20051;-82
2023/12/12 11:42:51;;;;;;;4.03;2.30;;;10.40;99.90;;;;;;5098642;28;20024;-83
2023/12/12 11:45:31;;;;;;;6.15;2.28;;;10.30;99.90;;;;;;5099576;28;20115;-83
2023/12/12 11:47:59;;;;;;;5.93;2.20;;;10.30;99.90;;;;;;5117304;28;20027;-82
2023/12/12 11:50:25;;;;;;;4.72;2.20;;;10.30;99.90;;;;;;5117725;28;20032;-83
2023/12/12 11:52:50;;;;;;;5.50;2.20;;;10.30;99.90;;;;;;5098836;28;20056;-83
2023/12/12 11:55:29;;;;;;;5.50;2.42;;;10.30;99.90;;;;;;5117488;28;20035;-83
2023/12/12 11:58:04;;;;;;;8.55;2.60;;;10.20;99.90;;;;;;5099195;28;20030;-83
2023/12/12 12:00:34;;;;;;;6.25;2.35;;;10.20;99.90;;;;;;5099366;28;20040;-84
2023/12/12 12:03:00;;;;;;;5.45;2.15;;;10.30;99.90;;;;;;5098810;28;20031;-84
2023/12/12 12:05:26;;;;;;;9.20;2.50;;;10.30;99.90;;;;;;5117190;28;20034;-83
2023/12/12 12:07:52;;;;;;;8.43;2.72;;;10.20;99.90;;;;;;5098795;28;20019;-82
2023/12/12 12:10:18;;;;;;;7.20;2.80;;;10.30;99.90;;;;;;5099076;28;20035;-83
2023/12/12 12:13:10;;;;;;;7.90;2.60;;;10.30;99.90;;;;;;5116884;28;20110;-83
2023/12/12 12:15:44;;;;;;;7.50;3.65;;;10.30;99.90;;;;;;5094006;28;20035;-83
2023/12/12 12:18:28;;;;;;;4.35;2.75;;;10.30;99.90;;;;;;5098754;28;20027;-84
2023/12/12 12:20:54;;;;;;;5.80;2.95;;;10.30;99.90;;;;;;5098553;28;20035;-83
2023/12/12 12:23:20;;;;;;;6.20;2.78;;;10.30;99.90;;;;;;5116980;28;20031;-83
2023/12/12 12:25:45;;;;;;;5.80;2.83;;;10.40;99.90;;;;;;5098289;28;20076;-84
2023/12/12 12:28:11;;;;;;;5.10;3.42;;;10.40;99.90;;;;;;5098956;28;20027;-83
2023/12/12 12:30:46;;;;;;;4.65;2.70;;;10.40;99.90;;;;;;5098059;28;20052;-83
2023/12/12 12:33:13;;;;;;;6.38;2.05;;;10.40;99.90;;;;;;5098671;28;20530;-83
2023/12/12 12:35:50;;;;;;;4.88;2.20;;;10.40;99.90;;;;;;5098924;28;20049;-83
2023/12/12 12:38:23;;;;;;;7.55;3.00;;;10.50;99.90;;;;;;5116600;28;20028;-84
2023/12/12 12:40:49;;;;;;;4.78;2.65;;;10.50;99.90;;;;;;5094140;28;20070;-83
2023/12/12 12:43:17;;;;;;;6.15;3.10;;;10.40;99.90;;;;;;5095409;28;20024;-82
2023/12/12 12:45:43;;;;;;;5.53;2.83;;;10.40;99.90;;;;;;5094634;28;20115;-84